createdAt,value
2023-04-28T00:02:49.206Z,11.70
2023-04-28T00:07:44.117Z,11.70
2023-04-28T00:12:37.528Z,11.80
2023-04-28T00:17:30.989Z,11.80
2023-04-28T00:22:24.437Z,11.80
2023-04-28T00:27:19.249Z,11.70
2023-04-28T00:32:13.646Z,11.60
2023-04-28T00:37:07.118Z,11.60
2023-04-28T00:42:00.510Z,11.60
2023-04-28T00:46:55.868Z,11.60
2023-04-28T00:51:49.186Z,11.60
2023-04-28T00:56:42.978Z,11.60
2023-04-28T01:01:37.081Z,11.50
2023-04-28T01:06:59.859Z,11.40
2023-04-28T01:12:32.916Z,11.30
2023-04-28T01:18:27.518Z,11.30
2023-04-28T01:23:22.289Z,11.30
2023-04-28T01:28:17.073Z,11.10
2023-04-28T01:33:10.462Z,11.10
2023-04-28T01:38:04.341Z,11.10
2023-04-28T01:42:57.709Z,11.30
2023-04-28T01:47:52.529Z,11.30
2023-04-28T01:52:45.971Z,11.20
2023-04-28T01:57:39.631Z,11.20
2023-04-28T02:02:33.024Z,11.00
2023-04-28T02:07:27.835Z,11.00
2023-04-28T02:12:21.299Z,11.00
2023-04-28T02:17:14.609Z,10.90
2023-04-28T02:22:08.165Z,10.80
2023-04-28T02:27:02.930Z,10.80
2023-04-28T02:31:56.483Z,10.80
2023-04-28T02:36:50.019Z,10.90
2023-04-28T02:41:43.471Z,10.90
2023-04-28T02:46:38.288Z,10.90
2023-04-28T02:51:31.824Z,10.90
2023-04-28T02:56:25.301Z,10.90
2023-04-28T03:01:18.644Z,11.00
2023-04-28T03:06:13.469Z,11.00
2023-04-28T03:11:07.089Z,10.90
2023-04-28T03:16:00.515Z,10.70
2023-04-28T03:20:53.966Z,10.80
2023-04-28T03:25:48.794Z,10.90
2023-04-28T03:30:42.143Z,11.00
2023-04-28T03:35:35.516Z,11.00
2023-04-28T03:40:28.843Z,10.80
2023-04-28T03:45:23.568Z,10.70
2023-04-28T03:50:16.942Z,10.70
2023-04-28T03:55:11.637Z,10.80
2023-04-28T04:00:06.076Z,10.70
2023-04-28T04:05:00.967Z,10.70
2023-04-28T04:09:54.514Z,10.80
2023-04-28T04:14:51.066Z,10.60
2023-04-28T04:19:44.483Z,10.60
2023-04-28T04:29:53.640Z,10.80
2023-04-28T04:34:46.873Z,10.80
2023-04-28T04:39:40.399Z,10.80
2023-04-28T04:44:33.705Z,10.70
2023-04-28T04:49:28.442Z,10.70
2023-04-28T04:54:27.712Z,10.70
2023-04-28T04:59:24.578Z,10.70
2023-04-28T05:04:18.136Z,10.70
2023-04-28T05:09:13.249Z,10.70
2023-04-28T05:14:06.576Z,10.80
2023-04-28T05:19:00.475Z,10.70
2023-04-28T05:23:53.845Z,10.60
2023-04-28T05:28:48.575Z,10.60
2023-04-28T05:33:41.922Z,10.50
2023-04-28T05:38:36.089Z,10.40
2023-04-28T05:43:29.593Z,10.60
2023-04-28T05:48:24.948Z,10.70
2023-04-28T05:53:18.328Z,10.80
2023-04-28T05:58:11.722Z,10.80
2023-04-28T06:03:05.626Z,10.80
2023-04-28T06:08:00.536Z,10.80
2023-04-28T06:12:53.866Z,10.80
2023-04-28T06:17:47.147Z,10.90
2023-04-28T06:30:05.350Z,11.00
2023-04-28T06:34:58.833Z,11.00
2023-04-28T06:39:53.510Z,10.90
2023-04-28T06:44:46.794Z,10.90
2023-04-28T06:49:40.077Z,10.90
2023-04-28T06:54:37.545Z,10.90
2023-04-28T06:59:32.734Z,10.90
2023-04-28T07:04:27.343Z,11.00
2023-04-28T07:09:20.831Z,11.00
2023-04-28T07:14:14.310Z,11.00
2023-04-28T07:19:09.091Z,11.00
2023-04-28T07:24:03.042Z,11.00
2023-04-28T07:28:56.355Z,11.00
2023-04-28T07:33:59.321Z,11.10
2023-04-28T07:38:54.666Z,11.20
2023-04-28T07:43:48.177Z,11.20
2023-04-28T07:48:41.684Z,11.20
2023-04-28T07:53:35.469Z,11.10
2023-04-28T07:58:30.087Z,11.10
2023-04-28T08:03:23.504Z,11.10
2023-04-28T08:08:17.137Z,11.10
2023-04-28T08:13:10.588Z,11.00
2023-04-28T08:18:05.659Z,11.10
2023-04-28T08:22:59.177Z,11.10
2023-04-28T08:27:52.600Z,11.00
2023-04-28T08:32:46.116Z,11.10
2023-04-28T08:37:40.904Z,11.10
2023-04-28T08:42:35.854Z,11.20
2023-04-28T08:47:36.841Z,11.20
2023-04-28T08:52:31.583Z,11.20
2023-04-28T08:57:29.312Z,11.30
2023-04-28T09:02:22.884Z,11.30
2023-04-28T09:07:16.373Z,11.50
2023-04-28T09:12:09.841Z,11.60
2023-04-28T09:17:11.515Z,11.70
2023-04-28T09:22:21.875Z,11.70
2023-04-28T09:27:28.427Z,11.80
2023-04-28T09:32:25.186Z,11.80
2023-04-28T09:37:20.895Z,11.80
2023-04-28T09:42:34.738Z,11.80
2023-04-28T09:47:30.173Z,11.70
2023-04-28T09:52:23.801Z,11.80
2023-04-28T09:57:18.869Z,11.70
2023-04-28T10:02:31.991Z,11.70
2023-04-28T10:07:30.793Z,11.70
2023-04-28T10:12:25.929Z,11.60
2023-04-28T10:17:19.562Z,11.60
2023-04-28T10:22:56.024Z,11.60
2023-04-28T10:27:51.345Z,11.70
2023-04-28T10:32:45.932Z,11.70
2023-04-28T10:38:12.329Z,11.80
2023-04-28T10:43:53.301Z,12.00
2023-04-28T10:49:01.844Z,12.20
2023-04-28T10:54:19.914Z,12.50
2023-04-28T10:59:30.068Z,12.60
2023-04-28T11:04:24.560Z,12.60
2023-04-28T11:09:52.495Z,12.70
2023-04-28T11:14:45.887Z,12.70
2023-04-28T11:19:41.660Z,12.60
2023-04-28T11:24:39.102Z,12.60
2023-04-28T11:29:36.227Z,12.40
2023-04-28T11:34:29.674Z,12.30
2023-04-28T11:39:29.794Z,12.20
2023-04-28T11:44:24.832Z,12.30
2023-04-28T11:49:20.696Z,12.30
2023-04-28T11:54:15.156Z,12.30
2023-04-28T11:59:11.360Z,12.30
2023-04-28T12:04:05.800Z,12.40
2023-04-28T12:09:04.546Z,12.50
2023-04-28T12:14:10.808Z,12.60
2023-04-28T12:19:08.009Z,12.70
2023-04-28T12:24:03.331Z,12.80
2023-04-28T12:28:56.681Z,12.90
2023-04-28T12:33:50.172Z,13.30
2023-04-28T12:38:49.922Z,13.50
2023-04-28T12:43:44.686Z,13.70
2023-04-28T12:48:38.301Z,13.90
2023-04-28T12:53:31.623Z,14.10
2023-04-28T12:58:24.924Z,14.30
2023-04-28T13:03:21.522Z,14.30
2023-04-28T13:08:15.152Z,14.20
2023-04-28T13:13:08.458Z,14.00
2023-04-28T13:18:01.866Z,13.90
2023-04-28T13:22:56.635Z,13.80
2023-04-28T13:27:49.988Z,14.00
2023-04-28T13:32:43.353Z,14.10
2023-04-28T13:37:42.499Z,14.30
2023-04-28T13:42:37.193Z,14.40
2023-04-28T13:47:32.750Z,14.40
2023-04-28T13:52:26.041Z,14.40
2023-04-28T13:57:19.405Z,14.40
2023-04-28T14:02:14.146Z,14.50
2023-04-28T14:07:07.541Z,14.50
2023-04-28T14:12:05.115Z,14.70
2023-04-28T14:16:58.498Z,14.80
2023-04-28T14:21:55.804Z,14.90
2023-04-28T14:26:49.599Z,14.50
2023-04-28T14:38:19.145Z,14.10
2023-04-28T14:43:38.098Z,13.90
2023-04-28T14:55:41.972Z,13.90
2023-04-28T15:01:09.111Z,14.00
2023-04-28T15:06:11.573Z,14.30
2023-04-28T15:11:14.445Z,14.40
2023-04-28T15:16:13.972Z,14.50
2023-04-28T15:21:21.865Z,14.70
2023-04-28T15:26:40.477Z,14.70
2023-04-28T15:31:37.414Z,14.60
2023-04-28T15:36:50.337Z,14.40
2023-04-28T15:41:55.502Z,14.20
2023-04-28T15:46:48.888Z,14.10
2023-04-28T15:51:42.281Z,14.00
2023-04-28T15:56:38.140Z,14.10
2023-04-28T16:01:33.252Z,14.30
2023-04-28T16:06:26.700Z,14.40
2023-04-28T16:11:20.505Z,14.50
2023-04-28T16:16:14.259Z,14.50
2023-04-28T16:21:09.012Z,14.60
2023-04-28T16:26:02.525Z,14.60
2023-04-28T16:30:55.942Z,14.70
2023-04-28T16:35:56.157Z,14.70
2023-04-28T16:40:51.505Z,14.70
2023-04-28T16:45:45.004Z,14.70
2023-04-28T16:50:40.803Z,14.70
2023-04-28T16:55:36.338Z,14.70
2023-04-28T17:00:31.102Z,14.70
2023-04-28T17:05:24.431Z,14.60
2023-04-28T17:10:19.781Z,14.70
2023-04-28T17:15:17.352Z,14.70
2023-04-28T17:20:16.819Z,14.70
2023-04-28T17:25:12.032Z,14.70
2023-04-28T17:30:06.486Z,14.60
2023-04-28T17:35:23.164Z,14.60
2023-04-28T17:46:28.743Z,14.60
2023-04-28T17:51:23.711Z,14.50
2023-04-28T17:56:17.669Z,14.40
2023-04-28T18:01:11.133Z,14.40
2023-04-28T18:06:13.872Z,14.40
2023-04-28T18:12:20.980Z,14.30
2023-04-28T18:17:14.303Z,14.20
2023-04-28T18:27:14.895Z,14.20
2023-04-28T18:32:12.738Z,14.30
2023-04-28T18:37:08.204Z,14.30
2023-04-28T18:42:05.727Z,14.30
2023-04-28T18:47:32.404Z,14.20
2023-04-28T19:19:03.802Z,13.80
2023-04-28T19:24:43.697Z,13.70
2023-04-28T19:30:14.481Z,13.60
2023-04-28T19:35:10.539Z,13.60
2023-04-28T19:40:17.765Z,13.50
2023-04-28T19:45:12.222Z,13.50
2023-04-28T19:50:10.354Z,13.50
2023-04-28T19:55:24.726Z,13.40
2023-04-28T20:00:51.306Z,13.40
2023-04-28T20:05:46.986Z,13.30
2023-04-28T20:10:46.445Z,13.20
2023-04-28T20:15:43.444Z,13.20
2023-04-28T20:41:07.732Z,13.20
2023-04-28T20:46:01.114Z,13.10
2023-04-28T20:50:55.363Z,12.90
2023-04-28T20:55:48.750Z,12.80
2023-04-28T21:00:44.258Z,12.80
2023-04-28T21:05:37.617Z,13.00
2023-04-28T21:10:32.346Z,12.90
2023-04-28T21:15:26.296Z,12.90
2023-04-28T21:40:49.179Z,12.70
2023-04-28T21:45:42.712Z,12.70
2023-04-28T21:50:36.884Z,12.60
2023-04-28T21:55:30.334Z,12.60
2023-04-28T22:00:26.098Z,12.70
2023-04-28T22:05:20.136Z,12.70
2023-04-28T22:10:14.303Z,12.70
2023-04-28T22:15:09.573Z,12.70
2023-04-28T22:20:04.389Z,12.40
2023-04-28T22:24:57.789Z,12.50
2023-04-28T22:29:51.590Z,12.60
2023-04-28T22:34:45.324Z,12.60
2023-04-28T22:49:54.016Z,12.50
2023-04-28T22:54:47.312Z,12.50
2023-04-28T22:59:40.636Z,12.50
2023-04-28T23:04:34.127Z,12.30
2023-04-28T23:09:29.281Z,12.40
2023-04-28T23:14:22.695Z,12.40
2023-04-28T23:19:16.554Z,12.50
2023-04-28T23:24:11.466Z,12.50
2023-04-28T23:29:06.298Z,12.40
2023-04-28T23:33:59.805Z,12.50
2023-04-28T23:38:53.157Z,12.50
2023-04-28T23:43:46.513Z,12.40
2023-04-28T23:48:41.267Z,12.40
2023-04-28T23:53:34.630Z,12.40
2023-04-28T23:58:32.637Z,12.40
